createdAt,value
2019-02-06T00:01:57.947Z,12.63
2019-02-06T00:04:27.986Z,12.53
2019-02-06T00:06:57.787Z,13.23
2019-02-06T00:09:27.519Z,11.70
2019-02-06T00:11:57.377Z,12.27
2019-02-06T00:14:27.226Z,10.93
2019-02-06T00:16:57.094Z,11.30
2019-02-06T00:19:29.053Z,10.57
2019-02-06T00:22:01.126Z,11.57
2019-02-06T00:24:30.872Z,10.40
2019-02-06T00:27:00.658Z,10.23
2019-02-06T00:29:30.547Z,9.83
2019-02-06T00:32:00.710Z,8.13
2019-02-06T00:34:30.893Z,7.37
2019-02-06T00:37:00.655Z,7.57
2019-02-06T00:39:30.423Z,8.70
2019-02-06T00:42:03.118Z,7.60
2019-02-06T00:44:33.448Z,8.30
2019-02-06T00:47:06.320Z,7.90
2019-02-06T00:49:37.314Z,7.90
2019-02-06T00:52:07.167Z,7.30
2019-02-06T00:54:44.419Z,8.23
2019-02-06T00:57:17.192Z,7.87
2019-02-06T00:59:47.036Z,8.13
2019-02-06T01:02:19.883Z,8.40
2019-02-06T01:04:51.166Z,7.23
2019-02-06T01:07:20.906Z,6.83
2019-02-06T01:09:51.772Z,7.07
2019-02-06T01:12:22.523Z,7.67
2019-02-06T01:14:53.612Z,6.30
2019-02-06T01:17:25.925Z,7.07
2019-02-06T01:19:55.423Z,6.87
2019-02-06T01:22:27.823Z,5.40
2019-02-06T01:24:57.858Z,5.67
2019-02-06T01:27:27.803Z,6.17
2019-02-06T01:29:57.829Z,5.23
2019-02-06T01:32:27.575Z,5.60
2019-02-06T01:34:57.290Z,5.90
2019-02-06T01:37:27.161Z,6.20
2019-02-06T01:39:58.562Z,5.30
2019-02-06T01:42:28.393Z,6.27
2019-02-06T01:44:58.267Z,5.57
2019-02-06T01:47:28.378Z,5.37
2019-02-06T01:49:58.133Z,6.00
2019-02-06T01:52:29.037Z,5.30
2019-02-06T01:54:58.801Z,5.60
2019-02-06T01:57:28.723Z,5.33
2019-02-06T01:59:58.576Z,5.13
2019-02-06T02:02:28.373Z,4.80
2019-02-06T02:04:59.425Z,4.77
2019-02-06T02:07:32.266Z,4.20
2019-02-06T02:10:02.204Z,5.43
2019-02-06T02:12:34.511Z,5.27
2019-02-06T02:15:05.500Z,4.77
2019-02-06T02:17:35.252Z,5.93
2019-02-06T02:20:07.367Z,4.83
2019-02-06T02:22:37.100Z,5.20
2019-02-06T02:25:07.667Z,4.13
2019-02-06T02:27:37.779Z,5.03
2019-02-06T02:30:09.374Z,5.63
2019-02-06T02:32:39.127Z,5.03
2019-02-06T02:35:09.496Z,5.30
2019-02-06T02:37:39.325Z,6.20
2019-02-06T02:40:10.147Z,4.83
2019-02-06T02:42:42.798Z,5.00
2019-02-06T02:45:14.450Z,5.30
2019-02-06T02:47:44.645Z,6.30
2019-02-06T02:50:14.645Z,4.93
2019-02-06T02:52:44.800Z,5.37
2019-02-06T02:55:15.051Z,5.00
2019-02-06T02:57:45.300Z,4.77
2019-02-06T03:00:18.248Z,5.20
2019-02-06T03:03:04.815Z,4.83
2019-02-06T03:05:36.284Z,4.20
2019-02-06T03:08:11.027Z,4.93
2019-02-06T03:10:40.791Z,5.87
2019-02-06T03:13:10.536Z,6.00
2019-02-06T03:15:40.551Z,5.40
2019-02-06T03:18:10.259Z,5.30
2019-02-06T03:20:39.995Z,5.33
2019-02-06T03:23:09.823Z,5.30
2019-02-06T03:25:39.541Z,5.93
2019-02-06T03:28:09.236Z,5.90
2019-02-06T03:30:39.086Z,7.13
2019-02-06T03:33:08.836Z,7.40
2019-02-06T03:35:38.603Z,6.73
2019-02-06T03:38:08.469Z,5.97
2019-02-06T03:40:38.575Z,5.80
2019-02-06T03:43:11.408Z,7.30
2019-02-06T03:45:41.156Z,5.70
2019-02-06T03:48:10.867Z,6.57
2019-02-06T03:50:40.592Z,5.93
2019-02-06T03:53:10.445Z,9.50
2019-02-06T03:55:41.431Z,8.07
2019-02-06T03:58:11.164Z,7.60
2019-02-06T04:00:40.941Z,6.40
2019-02-06T04:03:11.327Z,6.13
2019-02-06T04:05:41.134Z,6.57
2019-02-06T04:08:10.979Z,5.13
2019-02-06T04:10:41.190Z,5.97
2019-02-06T04:13:11.176Z,6.47
2019-02-06T04:15:42.522Z,7.13
2019-02-06T04:18:12.221Z,6.77
2019-02-06T04:20:41.945Z,6.67
2019-02-06T04:23:16.587Z,6.57
2019-02-06T04:25:46.556Z,7.70
2019-02-06T04:28:16.516Z,6.47
2019-02-06T04:30:46.521Z,7.57
2019-02-06T04:33:16.245Z,7.30
2019-02-06T04:35:49.047Z,8.47
2019-02-06T04:38:18.911Z,13.78
2019-02-06T04:40:48.665Z,7.73
2019-02-06T04:43:19.293Z,5.70
2019-02-06T04:45:49.566Z,6.63
2019-02-06T04:48:19.353Z,5.53
2019-02-06T04:50:49.120Z,6.73
2019-02-06T04:53:18.830Z,7.07
2019-02-06T04:55:50.389Z,7.57
2019-02-06T04:58:21.364Z,6.07
2019-02-06T05:00:51.182Z,5.27
2019-02-06T05:03:20.984Z,5.43
2019-02-06T05:05:51.493Z,5.83
2019-02-06T05:13:00.264Z,16.73
2019-02-06T05:17:12.040Z,16.30
2019-02-06T05:23:13.950Z,14.30
2019-02-06T05:32:55.177Z,15.30
2019-02-06T05:35:55.594Z,13.23
2019-02-06T05:39:05.467Z,12.20
2019-02-06T05:43:23.773Z,11.50
2019-02-06T05:52:48.866Z,14.20
2019-02-06T05:53:20.887Z,13.87
2019-02-06T05:56:48.079Z,15.30
2019-02-06T05:59:21.514Z,12.57
2019-02-06T06:05:38.556Z,14.67
2019-02-06T06:06:13.668Z,11.37
2019-02-06T06:08:23.575Z,15.50
2019-02-06T06:11:05.341Z,14.70
2019-02-06T06:13:35.115Z,11.63
2019-02-06T06:16:05.098Z,9.27
2019-02-06T06:18:35.185Z,6.37
2019-02-06T06:21:04.904Z,5.20
2019-02-06T06:23:35.269Z,5.93
2019-02-06T06:26:05.142Z,5.43
2019-02-06T06:28:35.285Z,8.10
2019-02-06T06:31:05.029Z,7.07
2019-02-06T06:33:35.395Z,7.13
2019-02-06T06:36:09.795Z,7.60
2019-02-06T06:38:39.479Z,6.67
2019-02-06T06:41:12.240Z,7.33
2019-02-06T06:43:41.969Z,8.73
2019-02-06T06:46:11.989Z,15.77
2019-02-06T06:48:44.764Z,17.23
2019-02-06T06:51:14.471Z,14.77
2019-02-06T06:53:44.455Z,13.90
2019-02-06T06:56:17.131Z,15.00
2019-02-06T06:58:49.374Z,15.23
2019-02-06T07:01:20.611Z,18.37
2019-02-06T07:03:50.460Z,18.33
2019-02-06T07:06:34.224Z,18.80
2019-02-06T07:08:58.747Z,16.43
2019-02-06T07:11:28.454Z,25.70
2019-02-06T07:13:59.309Z,15.87
2019-02-06T07:16:29.564Z,14.57
2019-02-06T07:18:59.374Z,14.30
2019-02-06T07:21:29.020Z,13.50
2019-02-06T07:23:58.963Z,14.57
2019-02-06T07:26:29.089Z,17.23
2019-02-06T07:28:58.931Z,16.17
2019-02-06T07:31:28.828Z,16.20
2019-02-06T07:33:58.779Z,14.53
2019-02-06T07:36:29.679Z,14.87
2019-02-06T07:38:59.458Z,17.07
2019-02-06T07:41:29.444Z,19.53
2019-02-06T07:43:59.501Z,20.80
2019-02-06T07:46:29.316Z,19.77
2019-02-06T07:48:59.052Z,17.43
2019-02-06T07:51:29.344Z,14.77
2019-02-06T07:54:06.835Z,12.97
2019-02-06T07:56:36.590Z,12.00
2019-02-06T07:59:06.613Z,9.07
2019-02-06T08:01:36.543Z,9.23
2019-02-06T08:04:08.380Z,8.90
2019-02-06T08:06:38.337Z,9.20
2019-02-06T08:09:09.920Z,8.70
2019-02-06T08:11:39.881Z,11.27
2019-02-06T08:14:09.632Z,12.97
2019-02-06T08:16:39.420Z,14.30
2019-02-06T08:19:09.286Z,16.83
2019-02-06T08:21:43.134Z,24.93
2019-02-06T08:24:15.030Z,24.80
2019-02-06T08:26:45.279Z,29.60
2019-02-06T08:29:15.189Z,28.47
2019-02-06T08:31:44.975Z,22.53
2019-02-06T08:34:14.786Z,19.40
2019-02-06T08:36:44.775Z,13.73
2019-02-06T08:39:14.521Z,10.53
2019-02-06T08:41:44.256Z,8.10
2019-02-06T08:44:14.082Z,7.17
2019-02-06T08:46:43.903Z,5.97
2019-02-06T08:49:14.769Z,6.10
2019-02-06T08:51:44.700Z,5.73
2019-02-06T08:54:14.513Z,5.83
2019-02-06T08:56:44.465Z,6.33
2019-02-06T08:59:14.255Z,5.27
2019-02-06T09:01:43.988Z,4.90
2019-02-06T09:04:13.839Z,5.50
2019-02-06T09:06:43.664Z,8.13
2019-02-06T09:09:14.035Z,9.57
2019-02-06T09:11:44.261Z,7.50
2019-02-06T09:14:17.379Z,5.90
2019-02-06T09:16:49.966Z,5.47
2019-02-06T09:19:23.141Z,5.10
2019-02-06T09:21:55.162Z,5.57
2019-02-06T09:24:31.035Z,5.40
2019-02-06T09:27:01.116Z,5.50
2019-02-06T09:29:31.028Z,4.40
2019-02-06T09:32:03.179Z,4.87
2019-02-06T09:34:33.301Z,5.97
2019-02-06T09:37:06.126Z,5.43
2019-02-06T09:39:35.884Z,5.17
2019-02-06T09:42:05.759Z,5.70
2019-02-06T09:44:36.098Z,5.57
2019-02-06T09:47:10.973Z,5.20
2019-02-06T09:49:41.653Z,6.10
2019-02-06T09:52:11.786Z,5.47
2019-02-06T09:54:41.903Z,5.03
2019-02-06T09:57:11.640Z,8.77
2019-02-06T09:59:41.414Z,8.97
2019-02-06T10:02:11.251Z,7.00
2019-02-06T10:04:41.339Z,5.67
2019-02-06T10:07:11.220Z,8.30
2019-02-06T10:09:40.976Z,6.70
2019-02-06T10:12:12.008Z,5.67
2019-02-06T10:14:46.853Z,5.33
2019-02-06T10:17:17.011Z,5.20
2019-02-06T10:19:47.125Z,6.63
2019-02-06T10:22:16.909Z,6.80
2019-02-06T10:24:46.872Z,5.50
2019-02-06T10:27:17.103Z,5.30
2019-02-06T10:29:49.455Z,6.57
2019-02-06T10:32:20.929Z,6.73
2019-02-06T10:34:50.768Z,5.70
2019-02-06T10:37:20.930Z,5.60
2019-02-06T10:39:54.235Z,6.00
2019-02-06T10:42:24.078Z,7.13
2019-02-06T10:44:54.104Z,6.60
2019-02-06T10:47:24.033Z,5.87
2019-02-06T10:49:53.870Z,5.00
2019-02-06T10:55:15.102Z,5.83
2019-02-06T10:57:47.014Z,5.53
2019-02-06T11:00:26.171Z,5.73
2019-02-06T11:02:57.440Z,6.80
2019-02-06T11:05:29.562Z,5.90
2019-02-06T11:08:02.655Z,7.27
2019-02-06T11:10:32.423Z,5.90
2019-02-06T11:13:02.245Z,5.40
2019-02-06T11:15:35.255Z,5.67
2019-02-06T11:18:06.146Z,6.27
2019-02-06T11:20:37.064Z,6.63
2019-02-06T11:23:07.732Z,7.03
2019-02-06T11:25:38.395Z,6.27
2019-02-06T11:28:14.833Z,6.13
2019-02-06T11:30:44.863Z,5.80
2019-02-06T11:33:14.698Z,6.37
2019-02-06T11:35:44.638Z,5.47
2019-02-06T11:38:14.703Z,6.17
2019-02-06T11:40:44.580Z,5.60
2019-02-06T11:43:23.864Z,6.43
2019-02-06T11:45:54.066Z,6.17
2019-02-06T11:48:30.063Z,5.73
2019-02-06T11:51:03.099Z,6.57
2019-02-06T11:53:33.452Z,6.60
2019-02-06T11:56:03.410Z,7.07
2019-02-06T11:58:33.200Z,7.70
2019-02-06T12:01:31.285Z,7.23
2019-02-06T12:04:06.999Z,6.70
2019-02-06T12:06:38.544Z,10.23
2019-02-06T12:09:16.724Z,7.60
2019-02-06T12:11:52.449Z,8.17
2019-02-06T12:14:24.029Z,6.40
2019-02-06T12:16:55.822Z,8.10
2019-02-06T12:19:29.858Z,7.83
2019-02-06T12:22:00.352Z,7.37
2019-02-06T12:24:41.024Z,6.73
2019-02-06T12:27:11.631Z,10.50
2019-02-06T12:29:48.416Z,6.87
2019-02-06T12:32:20.444Z,10.80
2019-02-06T12:34:50.474Z,11.50
2019-02-06T12:37:28.057Z,6.63
2019-02-06T12:40:01.988Z,7.07
2019-02-06T12:42:37.539Z,6.97
2019-02-06T12:45:11.179Z,8.80
2019-02-06T12:47:48.618Z,10.30
2019-02-06T12:50:21.628Z,9.27
2019-02-06T12:52:51.417Z,7.73
2019-02-06T12:55:27.748Z,7.53
2019-02-06T12:58:00.488Z,6.73
2019-02-06T13:00:35.095Z,6.00
2019-02-06T13:03:08.797Z,6.07
2019-02-06T13:05:41.343Z,6.97
2019-02-06T13:08:11.689Z,5.73
2019-02-06T13:10:42.993Z,6.43
2019-02-06T13:13:14.293Z,6.00
2019-02-06T13:15:47.220Z,5.60
2019-02-06T13:18:15.916Z,6.73
2019-02-06T13:20:46.296Z,6.23
2019-02-06T13:23:16.470Z,6.60
2019-02-06T13:25:46.367Z,6.83
2019-02-06T13:28:16.445Z,6.50
2019-02-06T13:30:50.179Z,7.90
2019-02-06T13:33:20.099Z,7.67
2019-02-06T13:35:58.535Z,6.80
2019-02-06T13:38:28.405Z,7.33
2019-02-06T13:40:58.294Z,8.63
2019-02-06T13:43:28.523Z,6.80
2019-02-06T13:45:58.373Z,6.77
2019-02-06T13:48:28.227Z,6.90
2019-02-06T13:50:57.959Z,6.83
2019-02-06T13:53:29.933Z,7.10
2019-02-06T13:56:02.878Z,6.07
2019-02-06T13:58:40.911Z,6.80
2019-02-06T14:01:10.769Z,6.63
2019-02-06T14:03:42.963Z,7.07
2019-02-06T14:06:15.891Z,7.33
2019-02-06T14:08:49.390Z,7.43
2019-02-06T14:11:19.185Z,7.33
2019-02-06T14:13:48.922Z,7.13
2019-02-06T14:16:19.537Z,8.77
2019-02-06T14:18:49.859Z,7.70
2019-02-06T14:21:22.847Z,6.93
2019-02-06T14:24:24.613Z,6.90
2019-02-06T14:27:28.519Z,6.47
2019-02-06T14:30:51.356Z,8.50
2019-02-06T14:34:08.053Z,6.30
2019-02-06T14:37:20.477Z,7.20
2019-02-06T14:40:18.143Z,6.57
2019-02-06T14:43:48.467Z,5.70
2019-02-06T14:46:48.728Z,7.03
2019-02-06T14:50:08.745Z,6.37
2019-02-06T14:53:07.324Z,5.90
2019-02-06T14:55:58.659Z,6.40
2019-02-06T14:59:08.411Z,5.70
2019-02-06T15:02:21.305Z,5.67
2019-02-06T15:05:25.813Z,4.87
2019-02-06T15:08:44.967Z,5.10
2019-02-06T15:11:56.330Z,6.87
2019-02-06T15:14:59.330Z,6.13
2019-02-06T15:18:18.238Z,5.73
2019-02-06T15:21:19.576Z,5.30
2019-02-06T15:24:34.064Z,5.77
2019-02-06T15:27:29.583Z,6.00
2019-02-06T15:30:34.184Z,5.00
2019-02-06T15:33:20.320Z,5.40
2019-02-06T15:36:23.002Z,5.53
2019-02-06T15:43:21.242Z,5.20
2019-02-06T15:46:40.119Z,4.80
2019-02-06T15:49:52.088Z,5.97
2019-02-06T15:53:27.841Z,5.43
2019-02-06T15:56:53.342Z,4.50
2019-02-06T16:00:22.393Z,4.57
2019-02-06T16:03:22.302Z,4.30
2019-02-06T16:07:08.579Z,4.40
2019-02-06T16:10:27.452Z,3.83
2019-02-06T16:13:49.378Z,4.23
2019-02-06T16:17:01.276Z,4.53
2019-02-06T16:20:05.471Z,4.93
2019-02-06T16:23:04.029Z,4.40
2019-02-06T16:26:23.357Z,3.97
2019-02-06T16:29:22.347Z,4.37
2019-02-06T16:32:32.551Z,4.27
2019-02-06T16:35:33.477Z,3.90
2019-02-06T16:38:45.199Z,5.77
2019-02-06T16:41:56.848Z,4.73
2019-02-06T16:44:59.613Z,4.73
2019-02-06T16:48:00.765Z,4.93
2019-02-06T16:50:57.956Z,4.77
2019-02-06T16:54:06.892Z,5.30
2019-02-06T16:57:05.167Z,6.63
2019-02-06T17:00:32.046Z,5.17
2019-02-06T17:03:49.691Z,7.33
2019-02-06T17:06:45.894Z,7.80
2019-02-06T17:09:42.188Z,8.47
2019-02-06T17:12:30.500Z,6.57
2019-02-06T17:15:59.203Z,5.40
2019-02-06T17:19:26.578Z,5.87
2019-02-06T17:22:22.198Z,4.60
2019-02-06T17:29:25.314Z,8.90
2019-02-06T17:32:40.344Z,10.30
2019-02-06T17:35:48.542Z,8.40
2019-02-06T17:38:55.449Z,9.60
2019-02-06T17:42:19.138Z,17.10
2019-02-06T17:45:34.648Z,11.60
2019-02-06T17:48:55.818Z,10.00
2019-02-06T17:52:29.076Z,8.53
2019-02-06T17:55:23.743Z,9.37
2019-02-06T17:57:58.570Z,10.63
2019-02-06T18:00:51.538Z,8.73
2019-02-06T18:03:28.947Z,7.70
2019-02-06T18:06:06.452Z,8.77
2019-02-06T18:08:43.177Z,9.83
2019-02-06T18:11:16.498Z,8.90
2019-02-06T19:48:27.474Z,6.27
2019-02-06T20:04:29.034Z,10.83
2019-02-06T20:07:19.459Z,5.50
2019-02-06T20:12:39.858Z,8.97
2019-02-06T20:14:00.367Z,6.70
2019-02-06T20:16:35.297Z,10.80
2019-02-06T20:19:16.590Z,7.43
2019-02-06T20:21:48.612Z,7.07
2019-02-06T20:24:25.877Z,5.53
2019-02-06T20:27:00.555Z,5.43
2019-02-06T20:29:31.786Z,5.10
2019-02-06T20:32:04.444Z,5.37
2019-02-06T20:35:54.917Z,4.80
2019-02-06T20:37:39.051Z,5.70
2019-02-06T20:41:00.620Z,4.70
2019-02-06T20:43:22.119Z,5.27
2019-02-06T20:45:52.086Z,4.27
2019-02-06T20:48:28.232Z,5.37
2019-02-06T20:51:12.778Z,4.93
2019-02-06T20:54:07.767Z,5.20
2019-02-06T20:56:43.249Z,4.73
2019-02-06T20:59:14.455Z,5.80
2019-02-06T21:01:48.776Z,5.00
2019-02-06T21:04:21.857Z,5.10
2019-02-06T21:06:53.644Z,5.30
2019-02-06T21:09:22.787Z,5.03
2019-02-06T21:12:02.899Z,5.27
2019-02-06T21:14:33.307Z,5.93
2019-02-06T21:17:03.773Z,5.40
2019-02-06T21:20:00.352Z,5.50
2019-02-06T21:22:38.524Z,5.67
2019-02-06T21:25:10.279Z,5.40
2019-02-06T21:27:41.672Z,9.70
2019-02-06T21:30:18.426Z,9.40
2019-02-06T21:32:53.075Z,9.97
2019-02-06T21:35:25.970Z,13.60
2019-02-06T21:37:56.168Z,10.63
2019-02-06T21:40:28.253Z,8.17
2019-02-06T21:42:58.426Z,8.97
2019-02-06T21:45:29.310Z,7.47
2019-02-06T21:47:59.227Z,7.20
2019-02-06T21:50:29.345Z,6.60
2019-02-06T21:53:13.787Z,6.10
2019-02-06T21:55:43.771Z,5.70
2019-02-06T21:58:13.582Z,6.47
2019-02-06T22:00:44.200Z,6.90
2019-02-06T22:03:17.209Z,6.80
2019-02-06T22:05:47.590Z,6.13
2019-02-06T22:08:17.565Z,5.70
2019-02-06T22:10:50.473Z,6.10
2019-02-06T22:13:23.127Z,7.20
2019-02-06T22:15:54.757Z,5.80
2019-02-06T22:18:32.111Z,7.17
2019-02-06T22:21:01.956Z,6.20
2019-02-06T22:23:35.476Z,5.80
2019-02-06T22:26:05.527Z,6.63
2019-02-06T22:28:35.437Z,5.40
2019-02-06T22:31:06.547Z,6.20
2019-02-06T22:33:36.511Z,5.50
2019-02-06T22:36:08.909Z,6.50
2019-02-06T22:38:38.786Z,7.23
2019-02-06T22:41:20.131Z,6.90
2019-02-06T22:43:44.627Z,6.37
2019-02-06T22:46:19.025Z,6.93
2019-02-06T22:48:50.056Z,6.50
2019-02-06T22:51:21.000Z,7.17
2019-02-06T22:53:53.792Z,7.83
2019-02-06T22:56:27.257Z,7.33
2019-02-06T22:59:08.917Z,7.20
